sensor_id;sensor_type;location;lat;lon;timestamp;P1;durP1;ratioP1;P2;durP2;ratioP2
82292;SDS011;71892;14.836;105.234;2024-02-21T00:01:06;64.28;;;35.92;;
82292;SDS011;71892;14.836;105.234;2024-02-21T00:03:33;68.20;;;38.13;;
82292;SDS011;71892;14.836;105.234;2024-02-21T00:05:59;62.38;;;35.55;;
82292;SDS011;71892;14.836;105.234;2024-02-21T00:08:25;53.42;;;32.50;;
82292;SDS011;71892;14.836;105.234;2024-02-21T00:10:52;50.35;;;33.33;;
82292;SDS011;71892;14.836;105.234;2024-02-21T00:13:18;64.47;;;32.45;;
82292;SDS011;71892;14.836;105.234;2024-02-21T00:15:44;50.47;;;31.92;;
82292;SDS011;71892;14.836;105.234;2024-02-21T00:18:11;50.38;;;30.42;;
82292;SDS011;71892;14.836;105.234;2024-02-21T00:20:37;50.80;;;28.65;;
82292;SDS011;71892;14.836;105.234;2024-02-21T00:23:04;56.75;;;29.55;;
82292;SDS011;71892;14.836;105.234;2024-02-21T00:25:30;38.85;;;26.40;;
82292;SDS011;71892;14.836;105.234;2024-02-21T00:27:56;43.33;;;25.10;;
82292;SDS011;71892;14.836;105.234;2024-02-21T00:30:23;39.15;;;24.52;;
82292;SDS011;71892;14.836;105.234;2024-02-21T00:32:49;33.78;;;21.98;;
82292;SDS011;71892;14.836;105.234;2024-02-21T00:35:15;34.17;;;22.55;;
82292;SDS011;71892;14.836;105.234;2024-02-21T00:37:42;37.85;;;22.83;;
82292;SDS011;71892;14.836;105.234;2024-02-21T00:40:08;37.78;;;22.10;;
82292;SDS011;71892;14.836;105.234;2024-02-21T00:42:35;31.25;;;21.33;;
82292;SDS011;71892;14.836;105.234;2024-02-21T00:45:02;32.53;;;20.52;;
82292;SDS011;71892;14.836;105.234;2024-02-21T00:47:28;39.55;;;21.55;;
82292;SDS011;71892;14.836;105.234;2024-02-21T00:49:55;54.90;;;21.45;;
82292;SDS011;71892;14.836;105.234;2024-02-21T00:52:21;32.55;;;20.60;;
82292;SDS011;71892;14.836;105.234;2024-02-21T00:54:48;35.78;;;19.42;;
82292;SDS011;71892;14.836;105.234;2024-02-21T00:57:14;27.13;;;19.98;;
82292;SDS011;71892;14.836;105.234;2024-02-21T00:59:40;32.13;;;18.85;;
82292;SDS011;71892;14.836;105.234;2024-02-21T01:02:07;34.08;;;19.80;;
82292;SDS011;71892;14.836;105.234;2024-02-21T01:04:34;26.75;;;19.00;;
82292;SDS011;71892;14.836;105.234;2024-02-21T01:07:01;28.92;;;18.30;;
82292;SDS011;71892;14.836;105.234;2024-02-21T01:09:28;33.17;;;18.60;;
82292;SDS011;71892;14.836;105.234;2024-02-21T01:11:54;32.03;;;19.65;;
82292;SDS011;71892;14.836;105.234;2024-02-21T01:14:20;31.50;;;19.40;;
82292;SDS011;71892;14.836;105.234;2024-02-21T01:16:47;30.70;;;18.92;;
82292;SDS011;71892;14.836;105.234;2024-02-21T01:19:13;31.23;;;19.35;;
82292;SDS011;71892;14.836;105.234;2024-02-21T01:21:39;29.70;;;19.77;;
82292;SDS011;71892;14.836;105.234;2024-02-21T01:24:06;34.35;;;17.73;;
82292;SDS011;71892;14.836;105.234;2024-02-21T01:26:32;34.15;;;18.27;;
82292;SDS011;71892;14.836;105.234;2024-02-21T01:28:59;32.83;;;19.42;;
82292;SDS011;71892;14.836;105.234;2024-02-21T01:31:25;31.60;;;19.33;;
82292;SDS011;71892;14.836;105.234;2024-02-21T01:33:51;29.38;;;19.35;;
82292;SDS011;71892;14.836;105.234;2024-02-21T01:36:18;27.88;;;18.08;;
82292;SDS011;71892;14.836;105.234;2024-02-21T01:38:44;32.25;;;17.77;;
82292;SDS011;71892;14.836;105.234;2024-02-21T01:41:10;33.80;;;17.42;;
82292;SDS011;71892;14.836;105.234;2024-02-21T01:43:36;29.40;;;17.80;;
82292;SDS011;71892;14.836;105.234;2024-02-21T01:46:03;30.15;;;17.30;;
82292;SDS011;71892;14.836;105.234;2024-02-21T01:48:28;26.83;;;17.80;;
82292;SDS011;71892;14.836;105.234;2024-02-21T01:50:55;26.50;;;18.50;;
82292;SDS011;71892;14.836;105.234;2024-02-21T01:53:23;36.05;;;18.13;;
82292;SDS011;71892;14.836;105.234;2024-02-21T01:55:55;23.60;;;16.40;;
82292;SDS011;71892;14.836;105.234;2024-02-21T01:58:22;27.05;;;18.10;;
82292;SDS011;71892;14.836;105.234;2024-02-21T02:00:50;27.73;;;16.80;;
82292;SDS011;71892;14.836;105.234;2024-02-21T02:03:16;24.50;;;17.58;;
82292;SDS011;71892;14.836;105.234;2024-02-21T02:05:46;26.15;;;17.13;;
82292;SDS011;71892;14.836;105.234;2024-02-21T02:08:17;24.55;;;17.35;;
82292;SDS011;71892;14.836;105.234;2024-02-21T02:10:44;23.30;;;16.60;;
82292;SDS011;71892;14.836;105.234;2024-02-21T02:13:14;24.60;;;15.77;;
82292;SDS011;71892;14.836;105.234;2024-02-21T02:15:44;26.85;;;16.00;;
82292;SDS011;71892;14.836;105.234;2024-02-21T02:18:11;27.45;;;16.90;;
82292;SDS011;71892;14.836;105.234;2024-02-21T02:20:38;29.98;;;17.20;;
82292;SDS011;71892;14.836;105.234;2024-02-21T02:23:07;31.15;;;17.67;;
82292;SDS011;71892;14.836;105.234;2024-02-21T02:25:54;26.35;;;15.52;;
82292;SDS011;71892;14.836;105.234;2024-02-21T02:28:20;29.77;;;16.50;;
82292;SDS011;71892;14.836;105.234;2024-02-21T02:30:47;28.58;;;18.13;;
82292;SDS011;71892;14.836;105.234;2024-02-21T02:33:14;28.38;;;16.50;;
82292;SDS011;71892;14.836;105.234;2024-02-21T02:35:42;23.77;;;15.48;;
82292;SDS011;71892;14.836;105.234;2024-02-21T02:38:09;31.65;;;16.63;;
82292;SDS011;71892;14.836;105.234;2024-02-21T02:40:38;27.27;;;16.23;;
82292;SDS011;71892;14.836;105.234;2024-02-21T02:43:08;24.13;;;16.65;;
82292;SDS011;71892;14.836;105.234;2024-02-21T02:45:34;27.35;;;16.38;;
82292;SDS011;71892;14.836;105.234;2024-02-21T02:48:01;28.92;;;17.13;;
82292;SDS011;71892;14.836;105.234;2024-02-21T02:50:28;25.63;;;17.30;;
82292;SDS011;71892;14.836;105.234;2024-02-21T02:52:54;25.05;;;16.27;;
82292;SDS011;71892;14.836;105.234;2024-02-21T02:55:21;28.25;;;18.20;;
82292;SDS011;71892;14.836;105.234;2024-02-21T02:57:47;28.10;;;17.98;;
82292;SDS011;71892;14.836;105.234;2024-02-21T03:00:14;27.80;;;18.67;;
82292;SDS011;71892;14.836;105.234;2024-02-21T03:02:41;29.17;;;19.23;;
82292;SDS011;71892;14.836;105.234;2024-02-21T03:05:15;26.20;;;17.92;;
82292;SDS011;71892;14.836;105.234;2024-02-21T03:07:45;26.02;;;18.10;;
82292;SDS011;71892;14.836;105.234;2024-02-21T03:10:12;27.88;;;19.13;;
82292;SDS011;71892;14.836;105.234;2024-02-21T03:12:39;28.20;;;18.80;;
82292;SDS011;71892;14.836;105.234;2024-02-21T03:15:06;25.08;;;18.17;;
82292;SDS011;71892;14.836;105.234;2024-02-21T03:17:33;34.20;;;19.20;;
82292;SDS011;71892;14.836;105.234;2024-02-21T03:20:02;28.58;;;20.52;;
82292;SDS011;71892;14.836;105.234;2024-02-21T03:22:35;27.65;;;20.27;;
82292;SDS011;71892;14.836;105.234;2024-02-21T03:25:02;34.22;;;20.02;;
82292;SDS011;71892;14.836;105.234;2024-02-21T03:27:29;29.75;;;20.33;;
82292;SDS011;71892;14.836;105.234;2024-02-21T03:29:55;28.02;;;19.10;;
82292;SDS011;71892;14.836;105.234;2024-02-21T03:32:21;31.30;;;21.10;;
82292;SDS011;71892;14.836;105.234;2024-02-21T03:34:48;27.60;;;19.67;;
82292;SDS011;71892;14.836;105.234;2024-02-21T03:37:14;29.52;;;18.45;;
82292;SDS011;71892;14.836;105.234;2024-02-21T03:39:40;24.75;;;18.75;;
82292;SDS011;71892;14.836;105.234;2024-02-21T03:42:07;28.10;;;20.08;;
82292;SDS011;71892;14.836;105.234;2024-02-21T03:44:33;26.50;;;19.00;;
82292;SDS011;71892;14.836;105.234;2024-02-21T03:47:00;36.15;;;19.15;;
82292;SDS011;71892;14.836;105.234;2024-02-21T03:49:26;28.52;;;19.13;;
82292;SDS011;71892;14.836;105.234;2024-02-21T03:51:53;24.95;;;18.80;;
82292;SDS011;71892;14.836;105.234;2024-02-21T03:54:19;32.35;;;19.92;;
82292;SDS011;71892;14.836;105.234;2024-02-21T03:56:46;30.63;;;18.98;;
82292;SDS011;71892;14.836;105.234;2024-02-21T03:59:14;27.23;;;19.08;;
82292;SDS011;71892;14.836;105.234;2024-02-21T04:01:40;28.95;;;19.08;;
82292;SDS011;71892;14.836;105.234;2024-02-21T04:04:07;31.92;;;19.25;;
82292;SDS011;71892;14.836;105.234;2024-02-21T04:06:33;26.95;;;19.65;;
82292;SDS011;71892;14.836;105.234;2024-02-21T04:08:59;29.98;;;19.73;;
82292;SDS011;71892;14.836;105.234;2024-02-21T04:11:26;30.33;;;19.80;;
82292;SDS011;71892;14.836;105.234;2024-02-21T04:13:52;25.25;;;18.90;;
82292;SDS011;71892;14.836;105.234;2024-02-21T04:16:18;27.92;;;19.20;;
82292;SDS011;71892;14.836;105.234;2024-02-21T04:18:45;27.13;;;19.35;;
82292;SDS011;71892;14.836;105.234;2024-02-21T04:21:14;25.45;;;17.95;;
82292;SDS011;71892;14.836;105.234;2024-02-21T04:23:42;40.10;;;20.30;;
82292;SDS011;71892;14.836;105.234;2024-02-21T04:26:08;32.08;;;19.77;;
82292;SDS011;71892;14.836;105.234;2024-02-21T04:28:35;27.70;;;19.52;;
82292;SDS011;71892;14.836;105.234;2024-02-21T04:31:00;27.90;;;19.20;;
82292;SDS011;71892;14.836;105.234;2024-02-21T04:33:27;30.13;;;18.83;;
82292;SDS011;71892;14.836;105.234;2024-02-21T04:35:53;29.48;;;19.67;;
82292;SDS011;71892;14.836;105.234;2024-02-21T04:38:20;29.50;;;19.88;;
82292;SDS011;71892;14.836;105.234;2024-02-21T04:40:49;25.83;;;18.95;;
82292;SDS011;71892;14.836;105.234;2024-02-21T04:45:41;26.80;;;18.58;;
82292;SDS011;71892;14.836;105.234;2024-02-21T04:48:08;27.38;;;19.70;;
82292;SDS011;71892;14.836;105.234;2024-02-21T04:50:34;26.02;;;18.98;;
82292;SDS011;71892;14.836;105.234;2024-02-21T04:53:00;25.02;;;19.25;;
82292;SDS011;71892;14.836;105.234;2024-02-21T04:55:27;27.58;;;17.55;;
82292;SDS011;71892;14.836;105.234;2024-02-21T04:57:53;25.02;;;17.52;;
82292;SDS011;71892;14.836;105.234;2024-02-21T05:00:24;29.52;;;18.73;;
82292;SDS011;71892;14.836;105.234;2024-02-21T05:02:50;29.55;;;18.25;;
82292;SDS011;71892;14.836;105.234;2024-02-21T05:05:16;25.02;;;17.77;;
82292;SDS011;71892;14.836;105.234;2024-02-21T05:07:43;30.58;;;17.95;;
82292;SDS011;71892;14.836;105.234;2024-02-21T05:10:09;22.75;;;17.13;;
82292;SDS011;71892;14.836;105.234;2024-02-21T05:12:36;27.65;;;17.52;;
82292;SDS011;71892;14.836;105.234;2024-02-21T05:15:03;33.45;;;19.88;;
82292;SDS011;71892;14.836;105.234;2024-02-21T05:17:29;24.80;;;19.02;;
82292;SDS011;71892;14.836;105.234;2024-02-21T05:19:56;33.05;;;18.45;;
82292;SDS011;71892;14.836;105.234;2024-02-21T05:22:22;27.70;;;17.95;;
82292;SDS011;71892;14.836;105.234;2024-02-21T05:24:48;29.73;;;18.70;;
82292;SDS011;71892;14.836;105.234;2024-02-21T05:27:15;26.15;;;17.60;;
82292;SDS011;71892;14.836;105.234;2024-02-21T05:29:41;30.90;;;19.85;;
82292;SDS011;71892;14.836;105.234;2024-02-21T05:32:07;23.67;;;18.20;;
82292;SDS011;71892;14.836;105.234;2024-02-21T05:34:34;30.30;;;18.40;;
82292;SDS011;71892;14.836;105.234;2024-02-21T05:37:00;27.48;;;18.75;;
82292;SDS011;71892;14.836;105.234;2024-02-21T05:39:27;23.27;;;17.80;;
82292;SDS011;71892;14.836;105.234;2024-02-21T05:41:54;27.77;;;17.80;;
82292;SDS011;71892;14.836;105.234;2024-02-21T05:44:21;25.02;;;18.42;;
82292;SDS011;71892;14.836;105.234;2024-02-21T05:46:47;30.10;;;18.10;;
82292;SDS011;71892;14.836;105.234;2024-02-21T05:49:14;32.85;;;18.80;;
82292;SDS011;71892;14.836;105.234;2024-02-21T05:51:40;29.73;;;18.67;;
82292;SDS011;71892;14.836;105.234;2024-02-21T05:54:06;30.88;;;18.33;;
82292;SDS011;71892;14.836;105.234;2024-02-21T05:56:33;24.67;;;18.08;;
82292;SDS011;71892;14.836;105.234;2024-02-21T05:58:59;24.23;;;17.65;;
82292;SDS011;71892;14.836;105.234;2024-02-21T06:01:26;21.80;;;16.90;;
82292;SDS011;71892;14.836;105.234;2024-02-21T06:03:53;26.90;;;16.70;;
82292;SDS011;71892;14.836;105.234;2024-02-21T06:06:20;40.85;;;18.42;;
82292;SDS011;71892;14.836;105.234;2024-02-21T06:08:47;25.75;;;16.48;;
82292;SDS011;71892;14.836;105.234;2024-02-21T06:11:13;27.20;;;16.27;;
82292;SDS011;71892;14.836;105.234;2024-02-21T06:13:40;21.63;;;16.05;;
82292;SDS011;71892;14.836;105.234;2024-02-21T06:16:09;23.88;;;16.73;;
82292;SDS011;71892;14.836;105.234;2024-02-21T06:18:36;21.83;;;15.30;;
82292;SDS011;71892;14.836;105.234;2024-02-21T06:21:03;34.70;;;16.85;;
82292;SDS011;71892;14.836;105.234;2024-02-21T06:23:30;27.02;;;17.92;;
82292;SDS011;71892;14.836;105.234;2024-02-21T06:25:56;25.85;;;16.48;;
82292;SDS011;71892;14.836;105.234;2024-02-21T06:28:22;27.55;;;16.95;;
82292;SDS011;71892;14.836;105.234;2024-02-21T06:30:49;19.98;;;16.42;;
82292;SDS011;71892;14.836;105.234;2024-02-21T06:33:15;21.35;;;14.73;;
82292;SDS011;71892;14.836;105.234;2024-02-21T06:35:41;24.70;;;16.88;;
82292;SDS011;71892;14.836;105.234;2024-02-21T06:38:10;22.60;;;14.88;;
82292;SDS011;71892;14.836;105.234;2024-02-21T06:40:37;20.55;;;15.65;;
82292;SDS011;71892;14.836;105.234;2024-02-21T06:43:05;23.38;;;15.65;;
82292;SDS011;71892;14.836;105.234;2024-02-21T06:45:32;18.80;;;15.07;;
82292;SDS011;71892;14.836;105.234;2024-02-21T06:47:58;30.40;;;15.40;;
82292;SDS011;71892;14.836;105.234;2024-02-21T06:50:25;21.13;;;14.70;;
82292;SDS011;71892;14.836;105.234;2024-02-21T06:52:51;24.20;;;15.27;;
82292;SDS011;71892;14.836;105.234;2024-02-21T06:55:17;21.38;;;15.07;;
82292;SDS011;71892;14.836;105.234;2024-02-21T06:57:44;21.05;;;15.27;;
82292;SDS011;71892;14.836;105.234;2024-02-21T07:00:10;22.83;;;15.10;;
82292;SDS011;71892;14.836;105.234;2024-02-21T07:02:37;22.35;;;15.73;;
82292;SDS011;71892;14.836;105.234;2024-02-21T07:05:04;19.55;;;15.30;;
82292;SDS011;71892;14.836;105.234;2024-02-21T07:07:30;25.27;;;15.85;;
82292;SDS011;71892;14.836;105.234;2024-02-21T07:09:57;20.77;;;15.27;;
82292;SDS011;71892;14.836;105.234;2024-02-21T07:12:23;22.55;;;14.65;;
82292;SDS011;71892;14.836;105.234;2024-02-21T07:14:50;22.65;;;14.68;;
82292;SDS011;71892;14.836;105.234;2024-02-21T07:17:16;20.58;;;14.80;;
82292;SDS011;71892;14.836;105.234;2024-02-21T07:19:42;26.58;;;15.32;;
82292;SDS011;71892;14.836;105.234;2024-02-21T07:22:09;24.50;;;15.85;;
82292;SDS011;71892;14.836;105.234;2024-02-21T07:24:35;18.65;;;14.73;;
82292;SDS011;71892;14.836;105.234;2024-02-21T07:27:03;20.83;;;15.65;;
82292;SDS011;71892;14.836;105.234;2024-02-21T07:29:30;23.50;;;15.52;;
82292;SDS011;71892;14.836;105.234;2024-02-21T07:31:56;23.55;;;15.70;;
82292;SDS011;71892;14.836;105.234;2024-02-21T07:34:23;17.42;;;14.48;;
82292;SDS011;71892;14.836;105.234;2024-02-21T07:36:50;24.38;;;15.70;;
82292;SDS011;71892;14.836;105.234;2024-02-21T07:39:16;21.95;;;15.13;;
82292;SDS011;71892;14.836;105.234;2024-02-21T07:41:42;27.52;;;16.05;;
82292;SDS011;71892;14.836;105.234;2024-02-21T07:44:11;20.00;;;15.43;;
82292;SDS011;71892;14.836;105.234;2024-02-21T07:46:38;19.77;;;15.48;;
82292;SDS011;71892;14.836;105.234;2024-02-21T07:49:04;21.25;;;14.73;;
82292;SDS011;71892;14.836;105.234;2024-02-21T07:51:30;23.08;;;15.40;;
82292;SDS011;71892;14.836;105.234;2024-02-21T07:53:57;20.95;;;14.43;;
82292;SDS011;71892;14.836;105.234;2024-02-21T07:56:23;19.02;;;14.15;;
82292;SDS011;71892;14.836;105.234;2024-02-21T07:58:54;21.73;;;15.50;;
82292;SDS011;71892;14.836;105.234;2024-02-21T08:01:21;19.42;;;14.50;;
82292;SDS011;71892;14.836;105.234;2024-02-21T08:03:47;22.13;;;15.27;;
82292;SDS011;71892;14.836;105.234;2024-02-21T08:06:14;22.42;;;14.77;;
82292;SDS011;71892;14.836;105.234;2024-02-21T08:08:40;20.58;;;14.68;;
82292;SDS011;71892;14.836;105.234;2024-02-21T08:11:07;20.00;;;14.82;;
82292;SDS011;71892;14.836;105.234;2024-02-21T08:13:33;23.27;;;14.00;;
82292;SDS011;71892;14.836;105.234;2024-02-21T08:16:00;20.15;;;13.68;;
82292;SDS011;71892;14.836;105.234;2024-02-21T08:18:26;18.90;;;14.48;;
82292;SDS011;71892;14.836;105.234;2024-02-21T08:20:53;24.15;;;16.80;;
82292;SDS011;71892;14.836;105.234;2024-02-21T08:23:19;21.08;;;15.07;;
82292;SDS011;71892;14.836;105.234;2024-02-21T08:25:49;19.20;;;14.88;;
82292;SDS011;71892;14.836;105.234;2024-02-21T08:28:15;20.13;;;14.57;;
82292;SDS011;71892;14.836;105.234;2024-02-21T08:30:42;21.83;;;15.88;;
82292;SDS011;71892;14.836;105.234;2024-02-21T08:33:14;20.60;;;14.73;;
82292;SDS011;71892;14.836;105.234;2024-02-21T08:35:42;18.40;;;15.15;;
82292;SDS011;71892;14.836;105.234;2024-02-21T08:38:08;22.92;;;15.45;;
82292;SDS011;71892;14.836;105.234;2024-02-21T08:40:35;22.02;;;14.57;;
82292;SDS011;71892;14.836;105.234;2024-02-21T08:43:02;20.17;;;14.55;;
82292;SDS011;71892;14.836;105.234;2024-02-21T08:45:29;20.00;;;14.93;;
82292;SDS011;71892;14.836;105.234;2024-02-21T08:47:55;20.05;;;14.40;;
82292;SDS011;71892;14.836;105.234;2024-02-21T08:50:21;21.90;;;15.30;;
82292;SDS011;71892;14.836;105.234;2024-02-21T08:52:48;19.40;;;15.18;;
82292;SDS011;71892;14.836;105.234;2024-02-21T08:55:15;18.17;;;14.57;;
82292;SDS011;71892;14.836;105.234;2024-02-21T08:57:41;20.73;;;16.02;;
82292;SDS011;71892;14.836;105.234;2024-02-21T09:00:08;20.17;;;15.20;;
82292;SDS011;71892;14.836;105.234;2024-02-21T09:02:36;23.08;;;16.42;;
82292;SDS011;71892;14.836;105.234;2024-02-21T09:05:05;22.10;;;16.55;;
82292;SDS011;71892;14.836;105.234;2024-02-21T09:07:32;21.17;;;16.48;;
82292;SDS011;71892;14.836;105.234;2024-02-21T09:09:58;20.80;;;15.70;;
82292;SDS011;71892;14.836;105.234;2024-02-21T09:12:26;21.95;;;16.00;;
82292;SDS011;71892;14.836;105.234;2024-02-21T09:14:52;21.77;;;16.13;;
82292;SDS011;71892;14.836;105.234;2024-02-21T09:17:19;21.38;;;16.42;;
82292;SDS011;71892;14.836;105.234;2024-02-21T09:19:50;23.90;;;15.43;;
82292;SDS011;71892;14.836;105.234;2024-02-21T09:22:17;19.58;;;16.85;;
82292;SDS011;71892;14.836;105.234;2024-02-21T09:24:43;40.70;;;17.65;;
82292;SDS011;71892;14.836;105.234;2024-02-21T09:27:10;24.35;;;15.95;;
82292;SDS011;71892;14.836;105.234;2024-02-21T09:29:37;26.02;;;14.85;;
82292;SDS011;71892;14.836;105.234;2024-02-21T09:32:04;23.05;;;15.60;;
82292;SDS011;71892;14.836;105.234;2024-02-21T09:34:31;24.95;;;16.33;;
82292;SDS011;71892;14.836;105.234;2024-02-21T09:36:58;24.42;;;15.32;;
82292;SDS011;71892;14.836;105.234;2024-02-21T09:39:24;29.25;;;15.63;;
82292;SDS011;71892;14.836;105.234;2024-02-21T09:42:03;23.25;;;15.63;;
82292;SDS011;71892;14.836;105.234;2024-02-21T09:44:36;22.48;;;15.60;;
82292;SDS011;71892;14.836;105.234;2024-02-21T09:47:19;22.85;;;15.98;;
82292;SDS011;71892;14.836;105.234;2024-02-21T09:50:00;23.48;;;15.80;;
82292;SDS011;71892;14.836;105.234;2024-02-21T09:52:30;23.83;;;16.35;;
82292;SDS011;71892;14.836;105.234;2024-02-21T09:54:58;27.25;;;16.23;;
82292;SDS011;71892;14.836;105.234;2024-02-21T09:59:55;22.75;;;16.55;;
82292;SDS011;71892;14.836;105.234;2024-02-21T10:02:24;19.60;;;15.65;;
82292;SDS011;71892;14.836;105.234;2024-02-21T10:04:51;28.55;;;16.65;;
82292;SDS011;71892;14.836;105.234;2024-02-21T10:07:20;27.02;;;16.10;;
82292;SDS011;71892;14.836;105.234;2024-02-21T10:09:49;25.88;;;16.60;;
82292;SDS011;71892;14.836;105.234;2024-02-21T10:12:29;18.33;;;15.77;;
82292;SDS011;71892;14.836;105.234;2024-02-21T10:15:02;20.23;;;15.30;;
82292;SDS011;71892;14.836;105.234;2024-02-21T10:17:29;24.90;;;18.00;;
82292;SDS011;71892;14.836;105.234;2024-02-21T10:20:09;23.63;;;17.50;;
82292;SDS011;71892;14.836;105.234;2024-02-21T10:22:37;28.83;;;16.83;;
82292;SDS011;71892;14.836;105.234;2024-02-21T10:25:11;25.08;;;16.83;;
82292;SDS011;71892;14.836;105.234;2024-02-21T10:27:38;23.90;;;16.52;;
82292;SDS011;71892;14.836;105.234;2024-02-21T10:30:06;28.00;;;18.23;;
82292;SDS011;71892;14.836;105.234;2024-02-21T10:32:32;26.85;;;17.83;;
82292;SDS011;71892;14.836;105.234;2024-02-21T10:35:03;27.08;;;17.13;;
82292;SDS011;71892;14.836;105.234;2024-02-21T10:37:30;22.15;;;17.23;;
82292;SDS011;71892;14.836;105.234;2024-02-21T10:40:00;25.50;;;17.98;;
82292;SDS011;71892;14.836;105.234;2024-02-21T10:42:30;35.35;;;19.48;;
82292;SDS011;71892;14.836;105.234;2024-02-21T10:45:00;26.15;;;17.77;;
82292;SDS011;71892;14.836;105.234;2024-02-21T10:47:30;25.95;;;17.60;;
82292;SDS011;71892;14.836;105.234;2024-02-21T10:50:02;24.23;;;16.63;;
82292;SDS011;71892;14.836;105.234;2024-02-21T10:55:35;28.90;;;16.48;;
82292;SDS011;71892;14.836;105.234;2024-02-21T10:58:07;25.02;;;18.10;;
82292;SDS011;71892;14.836;105.234;2024-02-21T11:00:36;27.63;;;17.70;;
82292;SDS011;71892;14.836;105.234;2024-02-21T11:03:02;24.13;;;17.63;;
82292;SDS011;71892;14.836;105.234;2024-02-21T11:05:30;21.33;;;16.58;;
82292;SDS011;71892;14.836;105.234;2024-02-21T11:07:56;28.40;;;16.88;;
82292;SDS011;71892;14.836;105.234;2024-02-21T11:10:24;23.20;;;17.83;;
82292;SDS011;71892;14.836;105.234;2024-02-21T11:13:09;25.88;;;17.90;;
82292;SDS011;71892;14.836;105.234;2024-02-21T11:15:36;32.50;;;18.10;;
82292;SDS011;71892;14.836;105.234;2024-02-21T11:18:03;32.42;;;19.17;;
82292;SDS011;71892;14.836;105.234;2024-02-21T11:20:37;31.42;;;19.80;;
82292;SDS011;71892;14.836;105.234;2024-02-21T11:23:26;33.47;;;20.25;;
82292;SDS011;71892;14.836;105.234;2024-02-21T11:25:52;44.60;;;20.45;;
82292;SDS011;71892;14.836;105.234;2024-02-21T11:28:36;30.73;;;19.38;;
82292;SDS011;71892;14.836;105.234;2024-02-21T11:31:12;34.70;;;20.88;;
82292;SDS011;71892;14.836;105.234;2024-02-21T11:33:40;35.63;;;19.80;;
82292;SDS011;71892;14.836;105.234;2024-02-21T11:36:08;34.65;;;20.60;;
82292;SDS011;71892;14.836;105.234;2024-02-21T11:38:50;34.88;;;20.15;;
82292;SDS011;71892;14.836;105.234;2024-02-21T11:41:16;35.15;;;19.85;;
82292;SDS011;71892;14.836;105.234;2024-02-21T11:43:43;33.20;;;20.95;;
82292;SDS011;71892;14.836;105.234;2024-02-21T11:46:09;30.55;;;20.92;;
82292;SDS011;71892;14.836;105.234;2024-02-21T11:48:36;34.75;;;21.58;;
82292;SDS011;71892;14.836;105.234;2024-02-21T11:51:05;38.05;;;20.80;;
82292;SDS011;71892;14.836;105.234;2024-02-21T11:53:31;35.35;;;20.83;;
82292;SDS011;71892;14.836;105.234;2024-02-21T11:55:58;34.40;;;20.33;;
82292;SDS011;71892;14.836;105.234;2024-02-21T11:58:25;34.13;;;20.98;;
82292;SDS011;71892;14.836;105.234;2024-02-21T12:00:52;34.20;;;20.50;;
82292;SDS011;71892;14.836;105.234;2024-02-21T12:03:28;32.65;;;21.73;;
82292;SDS011;71892;14.836;105.234;2024-02-21T12:05:57;32.45;;;21.33;;
82292;SDS011;71892;14.836;105.234;2024-02-21T12:08:40;34.28;;;21.65;;
82292;SDS011;71892;14.836;105.234;2024-02-21T12:11:20;26.85;;;20.90;;
82292;SDS011;71892;14.836;105.234;2024-02-21T12:13:58;29.30;;;21.92;;
82292;SDS011;71892;14.836;105.234;2024-02-21T12:16:29;31.10;;;22.98;;
82292;SDS011;71892;14.836;105.234;2024-02-21T12:18:56;38.83;;;25.40;;
82292;SDS011;71892;14.836;105.234;2024-02-21T12:21:24;55.83;;;36.72;;
82292;SDS011;71892;14.836;105.234;2024-02-21T12:23:53;51.20;;;34.35;;
82292;SDS011;71892;14.836;105.234;2024-02-21T12:26:19;40.80;;;27.92;;
82292;SDS011;71892;14.836;105.234;2024-02-21T12:28:45;40.35;;;28.30;;
82292;SDS011;71892;14.836;105.234;2024-02-21T12:31:12;34.08;;;24.75;;
82292;SDS011;71892;14.836;105.234;2024-02-21T12:33:39;42.50;;;27.15;;
82292;SDS011;71892;14.836;105.234;2024-02-21T12:36:05;39.22;;;26.20;;
82292;SDS011;71892;14.836;105.234;2024-02-21T12:38:34;39.63;;;24.35;;
82292;SDS011;71892;14.836;105.234;2024-02-21T12:41:01;36.08;;;25.10;;
82292;SDS011;71892;14.836;105.234;2024-02-21T12:43:28;38.42;;;24.42;;
82292;SDS011;71892;14.836;105.234;2024-02-21T12:45:55;35.83;;;23.63;;
82292;SDS011;71892;14.836;105.234;2024-02-21T12:48:21;37.40;;;24.60;;
82292;SDS011;71892;14.836;105.234;2024-02-21T12:50:48;36.17;;;23.00;;
82292;SDS011;71892;14.836;105.234;2024-02-21T12:53:19;34.05;;;24.55;;
82292;SDS011;71892;14.836;105.234;2024-02-21T12:55:49;35.08;;;23.60;;
82292;SDS011;71892;14.836;105.234;2024-02-21T12:58:16;31.23;;;22.38;;
82292;SDS011;71892;14.836;105.234;2024-02-21T13:00:43;31.83;;;23.95;;
82292;SDS011;71892;14.836;105.234;2024-02-21T13:03:10;37.35;;;25.10;;
82292;SDS011;71892;14.836;105.234;2024-02-21T13:05:36;33.03;;;24.00;;
82292;SDS011;71892;14.836;105.234;2024-02-21T13:08:05;30.75;;;22.58;;
82292;SDS011;71892;14.836;105.234;2024-02-21T13:10:32;39.25;;;24.60;;
82292;SDS011;71892;14.836;105.234;2024-02-21T13:13:01;40.70;;;24.67;;
82292;SDS011;71892;14.836;105.234;2024-02-21T13:15:28;29.23;;;23.08;;
82292;SDS011;71892;14.836;105.234;2024-02-21T13:17:57;39.88;;;23.83;;
82292;SDS011;71892;14.836;105.234;2024-02-21T13:20:27;33.15;;;23.98;;
82292;SDS011;71892;14.836;105.234;2024-02-21T13:22:54;32.90;;;23.83;;
82292;SDS011;71892;14.836;105.234;2024-02-21T13:25:20;39.97;;;28.50;;
82292;SDS011;71892;14.836;105.234;2024-02-21T13:27:47;39.00;;;27.50;;
82292;SDS011;71892;14.836;105.234;2024-02-21T13:30:14;44.10;;;33.30;;
82292;SDS011;71892;14.836;105.234;2024-02-21T13:32:44;46.60;;;32.45;;
82292;SDS011;71892;14.836;105.234;2024-02-21T13:35:11;45.13;;;33.10;;
82292;SDS011;71892;14.836;105.234;2024-02-21T13:37:38;44.20;;;30.20;;
82292;SDS011;71892;14.836;105.234;2024-02-21T13:40:06;44.67;;;31.52;;
82292;SDS011;71892;14.836;105.234;2024-02-21T13:42:39;36.22;;;27.05;;
82292;SDS011;71892;14.836;105.234;2024-02-21T13:45:06;33.45;;;27.00;;
82292;SDS011;71892;14.836;105.234;2024-02-21T13:47:33;34.10;;;24.80;;
82292;SDS011;71892;14.836;105.234;2024-02-21T13:50:02;32.13;;;25.50;;
82292;SDS011;71892;14.836;105.234;2024-02-21T13:52:37;34.60;;;25.50;;
82292;SDS011;71892;14.836;105.234;2024-02-21T13:55:03;33.58;;;26.85;;
82292;SDS011;71892;14.836;105.234;2024-02-21T13:57:29;34.28;;;24.95;;
82292;SDS011;71892;14.836;105.234;2024-02-21T13:59:56;39.70;;;26.75;;
82292;SDS011;71892;14.836;105.234;2024-02-21T14:02:22;39.58;;;25.33;;
82292;SDS011;71892;14.836;105.234;2024-02-21T14:04:49;33.75;;;24.73;;
82292;SDS011;71892;14.836;105.234;2024-02-21T14:07:16;30.70;;;24.35;;